WetterOnline ( https://www.wetteronline.at )

Wetter aktuell Freiburg im Breisgau

Aktuelles Wetter: Freiburg/Flugplatz (236m)

6-stündlich | Neueste Meldungen
Ortszeit Temperatur Wetter
Mi, 30.11. 7:00 5.9° C bedeckt
Mi, 30.11. 1:00 6.2° C Nebel
Di, 29.11. 19:00 7.3° C leichter Regen
Di, 29.11. 13:00 8.3° C bedeckt
Di, 29.11. 7:00 5.1° C Nebel
Di, 29.11. 1:00 8.4° C bedeckt
Mo, 28.11. 19:00 9.3° C bedeckt
Mo, 28.11. 13:00 10.1° C Sprühregen
Ortszeit Temperatur Wetter
Mi, 30.11. 8:00 5.9° C bewölkt
Mi, 30.11. 7:50 5.9° C bewölkt
Mi, 30.11. 7:40 5.9° C bedeckt
Mi, 30.11. 7:30 5.9° C bewölkt
Mi, 30.11. 7:20 5.9° C bewölkt
Mi, 30.11. 7:10 5.9° C bewölkt
Mi, 30.11. 7:00 5.9° C bedeckt
Mi, 30.11. 6:30 5.4° C bedeckt
Mi, 30.11. 6:00 6.2° C wolkig
Mi, 30.11. 5:30 6.2° C bewölkt
Mi, 30.11. 5:00 6.5° C bedeckt
Ortszeit Relative Feuchte Sichtweite
Mi, 30.11. 7:00 97% 15 km
Mi, 30.11. 1:00 99% 100 m
Di, 29.11. 19:00 96% 4.6 km
Di, 29.11. 13:00 85% 35 km
Di, 29.11. 7:00 99% 16 km
Di, 29.11. 1:00 83% 45 km
Mo, 28.11. 19:00 82% 65 km
Mo, 28.11. 13:00 82% 40 km
Ortszeit Relative Feuchte Sichtweite
Mi, 30.11. 8:00 97% 14 km
Mi, 30.11. 7:50 97% -
Mi, 30.11. 7:40 96% -
Mi, 30.11. 7:30 95% 19 km
Mi, 30.11. 7:20 95% -
Mi, 30.11. 7:10 95% -
Mi, 30.11. 7:00 97% 15 km
Mi, 30.11. 6:30 98% 5.0 km
Mi, 30.11. 6:00 95% 13 km
Mi, 30.11. 5:30 97% 9 km
Mi, 30.11. 5:00 98% 5.0 km
Ortszeit Niederschlagsmenge Niederschlagsart
Mi, 30.11. 7:00 0.3 l/m2 in 12 Std. Regen
Mi, 30.11. 1:00 0.3 l/m2 in 6 Std. Regen
Di, 29.11. 19:00 0.4 l/m2 in 12 Std. Regen
Di, 29.11. 13:00 0.0 l/m2 in 6 Std. -
Di, 29.11. 7:00 0.1 l/m2 in 12 Std. -
Di, 29.11. 1:00 0.1 l/m2 in 6 Std. Regen
Mo, 28.11. 19:00 2 l/m2 in 12 Std. Regen
Mo, 28.11. 13:00 0.3 l/m2 in 6 Std. Regen
Ortszeit Niederschlagsmenge Niederschlagsart
Mi, 30.11. 8:00 <0.05 l/m2 in 1 Std. -
Mi, 30.11. 7:50 keine Meldung -
Mi, 30.11. 7:40 keine Meldung -
Mi, 30.11. 7:30 <0.05 l/m2 in 1 Std. -
Mi, 30.11. 7:20 keine Meldung -
Mi, 30.11. 7:10 keine Meldung -
Mi, 30.11. 7:00 0.0 l/m2 in 1 Std. Regen
Mi, 30.11. 6:30 0.0 l/m2 in 1 Std. -
Mi, 30.11. 6:00 0.0 l/m2 in 1 Std. -
Mi, 30.11. 5:30 0.0 l/m2 in 1 Std. -
Mi, 30.11. 5:00 <0.05 l/m2 in 1 Std. Regen
Ortszeit Stärke Spitze Richtung
km/h Bft. km/h Grad Sektor
Mi, 30.11. 7:00 4 1 11 20° N
Mi, 30.11. 1:00 0 0 11 - -
Di, 29.11. 19:00 4 1 11 10° N
Di, 29.11. 13:00 2 1 7 50° NO
Di, 29.11. 7:00 0 0 14 - -
Di, 29.11. 1:00 7 2 32 230° SW
Mo, 28.11. 19:00 14 3 32 210° SW
Mo, 28.11. 13:00 4 1 25 170° S
Ortszeit Stärke Spitze Richtung
km/h Bft. km/h Grad Sektor
Mi, 30.11. 8:00 4 1 7 20° N
Mi, 30.11. 7:50 4 1 - 20° N
Mi, 30.11. 7:40 4 1 - 20° N
Mi, 30.11. 7:30 4 1 7 360° N
Mi, 30.11. 7:20 4 1 - 360° N
Mi, 30.11. 7:10 4 1 - 360° N
Mi, 30.11. 7:00 4 1 11 20° N
Mi, 30.11. 6:30 4 1 11 350° N
Mi, 30.11. 6:00 4 1 7 60° NO
Mi, 30.11. 5:30 4 1 7 20° N
Mi, 30.11. 5:00 4 1 7 40° NO
Ortszeit Untergrenze Bedeckung Gattung
total tief tief mittel hoch
Mi, 30.11. 7:00 270 m 8/8 8/8 - - -
Mi, 30.11. 1:00 <30 m 8/8 0/8 - - -
Di, 29.11. 19:00 90 m 8/8 8/8 - - -
Di, 29.11. 13:00 600 m 8/8 8/8 - - -
Di, 29.11. 7:00 1380 m 8/8 8/8 - - -
Di, 29.11. 1:00 840 m 8/8 8/8 - - -
Mo, 28.11. 19:00 1140 m 8/8 8/8 - - -
Mo, 28.11. 13:00 1140 m 8/8 8/8 - - -
Ortszeit Bedeckungsgrad in Achtel und Wolkenuntergrenze
Mi, 30.11. 8:00 7(270m)
Mi, 30.11. 7:50 7(270m)
Mi, 30.11. 7:40 8
Mi, 30.11. 7:30 7(270m)
Mi, 30.11. 7:20 7(270m)
Mi, 30.11. 7:10 7
Mi, 30.11. 7:00 8(270m)
Mi, 30.11. 6:30 6(300m) 8(2100m) 8(4200m)
Mi, 30.11. 6:00 1(300m) 8(3300m) 8(5700m)
Mi, 30.11. 5:30 6(270m) 7(1260m) 7(1500m)
Mi, 30.11. 5:00 2(150m) 8(270m)
Ortszeit Luftdruck NN (hPa) Tendenz (hPa in 3 Std.)
Mi, 30.11. 7:00 1021 + 0,4
Mi, 30.11. 1:00 1020 + 0,2
Di, 29.11. 19:00 1020 + 0,7
Di, 29.11. 13:00 1018 + 0,4
Di, 29.11. 7:00 1017 + 1,0
Di, 29.11. 1:00 1016 + 0,7
Mo, 28.11. 19:00 1014 + 0,6
Mo, 28.11. 13:00 1013 - 1,0
Ortszeit Luftdruck NN (hPa) Tendenz (hPa in 3 Std.)
Mi, 30.11. 8:00 1021 + 0,2
Mi, 30.11. 7:50 1021 keine Meldung
Mi, 30.11. 7:40 1021 keine Meldung
Mi, 30.11. 7:30 1021 + 0,3
Mi, 30.11. 7:20 1021 keine Meldung
Mi, 30.11. 7:10 1021 keine Meldung
Mi, 30.11. 7:00 1021 + 0,4
Mi, 30.11. 6:30 1021 + 0,4
Mi, 30.11. 6:00 1021 + 0,2
Mi, 30.11. 5:30 1021 + 0,3
Mi, 30.11. 5:00 1021 + 0,3
Ortszeit Schneehöhe (cm)
Mi, 30.11. 7:00 0
Mi, 30.11. 1:00 0
Di, 29.11. 19:00 0
Di, 29.11. 13:00 0
Di, 29.11. 7:00 0
Di, 29.11. 1:00 0
Mo, 28.11. 19:00 0
Mo, 28.11. 13:00 0
Ortszeit Schneehöhe (cm)
Mi, 30.11. 8:00 0
Mi, 30.11. 7:50 0
Mi, 30.11. 7:40 0
Mi, 30.11. 7:30 0
Mi, 30.11. 7:20 0
Mi, 30.11. 7:10 0
Mi, 30.11. 7:00 0
Mi, 30.11. 6:30 0
Mi, 30.11. 6:00 0
Mi, 30.11. 5:30 0
Mi, 30.11. 5:00 0
Link zu dieser Seite / Seite empfehlen

Das Wetter in ...